West Sacramento, California
Current Conditions -  °F | °C
As of 2:53 AM on Saturday 25 Oct 2014 (Local Time) from KSAC Reporting Station
Clear Clear  
Wind Chill: 61°   Ceiling: Unl
Heat Index: 61°   Visibility: 10mi
Dew Point: 54°   Wind: 8mph
Humidity: 78%   Direction: 120°ESE
Pressure: 29.92"   Gusts: NA
Location:  38.57°N, 121.55°W
Report Text: KSAC 250953Z AUTO 12007KT 10SM CLR 16/12 A2992 RMK AO2 SLP133 T01610122
Loading
Personal Weather Stations






























Interactive Weather Map New forecast layout! Learn more

10-Day Weather Forecast

Advertisements
Track Severe Weather on mobile